Main page
METAR-TAF:

METAR-TAF

Airports :

RAF Wittering

Wittering, England

latitude: 52-37N, longitude: 000-28W, elevation: 84 m

Current weather observation

The report was made 41 minutes ago, at 21:50 UTC
Wind 5 kt from the South/Southwest
Temperature 6°C
Humidity 87%
Pressure 1020 hPa
Visibility 10 km or more

METAR: EGXT 222150Z AUTO 21005KT 9999 NCD 06/04 Q1020

Time: 23:31 (22:31 UTC)

Forecast

The report was made 8 hours and 41 minutes ago, at 13:50 UTC
Forecast valid from 22 at 15 UTC to 22 at 18 UTC
Wind 10 kt from the South/Southwest
Visibility 10 km or more
Few clouds at a height of 3500 ft

TAF: EGXT 221350Z 2215/2218 21010KT 9999 FEW035

Weather observations and forecasts of more than 4000 airports (METAR and TAF reports).

The available stations are represented by yellow and red dots on the map.

Hover mouse over dot to see the name of the station.

Then click to see weather observations and forecasts.

To change the map : click on the green buttons with a black cross to zoom in, on the green button with a dash to zoom out, or on the green arrows for adjacent maps.


METAR-TAF: